Time;durP1;ratioP1;P1;durP2;ratioP2;P2;SDS_P1;SDS_P2;PMS_P1;PMS_P2;Temp;Humidity;BMP_temperature;BMP_pressure;BME280_temperature;BME280_humidity;BME280_pressure;Samples;Min_cycle;Max_cycle;Signal;HPM_P1;HPM_P2
2021/06/02 00:01:15;;;;;;;3.88;3.13;;;16.40;74.40;;;;;;4955898;28;96570;-51
2021/06/02 00:03:48;;;;;;;5.07;2.97;;;16.40;74.50;;;;;;4980485;28;98075;-56
2021/06/02 00:06:24;;;;;;;5.20;3.25;;;16.50;74.60;;;;;;4960910;28;95844;-54
2021/06/02 00:08:56;;;;;;;3.92;2.88;;;16.60;74.60;;;;;;4982787;28;95856;-54
2021/06/02 00:11:28;;;;;;;;;;;16.60;74.60;;;;;;4980197;28;96566;-54
2021/06/02 00:13:59;;;;;;;8.65;3.00;;;16.60;74.60;;;;;;4980262;28;96691;-56
2021/06/02 00:16:32;;;;;;;3.65;2.97;;;16.70;74.60;;;;;;4971233;28;96036;-54
2021/06/02 00:19:03;;;;;;;2.85;2.42;;;16.70;74.50;;;;;;4980619;28;95741;-56
2021/06/02 00:21:35;;;;;;;4.40;3.22;;;16.80;74.80;;;;;;4980509;28;96162;-52
2021/06/02 00:24:07;;;;;;;4.70;2.75;;;17.00;74.10;;;;;;4982522;28;97340;-53
2021/06/02 00:26:39;;;;;;;;;;;17.10;73.60;;;;;;4962669;28;96126;-50
2021/06/02 00:29:11;;;;;;;3.38;3.08;;;17.20;72.60;;;;;;4983306;28;95508;-52
2021/06/02 00:31:47;;;;;;;5.95;3.03;;;17.20;72.50;;;;;;4953791;28;100883;-54
2021/06/02 00:34:20;;;;;;;4.57;2.60;;;17.30;72.30;;;;;;4955228;28;96000;-55
2021/06/02 00:36:51;;;;;;;7.93;2.40;;;17.30;72.80;;;;;;4961761;28;96035;-52
2021/06/02 00:39:23;;;;;;;5.28;2.38;;;17.30;72.70;;;;;;4931067;28;95683;-56
2021/06/02 00:41:54;;;;;;;;;;;17.30;72.20;;;;;;4954573;28;95315;-50
2021/06/02 00:44:24;;;;;;;2.80;2.50;;;17.40;72.20;;;;;;4960457;28;95838;-51
2021/06/02 00:46:59;;;;;;;4.47;2.20;;;17.40;72.20;;;;;;4955839;28;96192;-50
2021/06/02 00:49:30;;;;;;;3.85;2.20;;;17.40;72.00;;;;;;4962738;28;95893;-52
2021/06/02 00:52:08;;;;;;;4.15;2.90;;;17.40;71.80;;;;;;4960141;28;95702;-53
2021/06/02 00:54:39;;;;;;;2.50;2.30;;;17.40;71.60;;;;;;4955186;28;96244;-54
2021/06/02 00:57:17;;;;;;;2.05;1.88;;;17.40;71.50;;;;;;4953414;28;96302;-52
2021/06/02 00:59:56;;;;;;;2.30;2.10;;;17.40;71.40;;;;;;4950123;28;96006;-54
2021/06/02 01:02:32;;;;;;;4.57;2.35;;;17.40;71.20;;;;;;4947890;28;96979;-54
2021/06/02 01:05:05;;;;;;;3.22;2.40;;;17.40;70.90;;;;;;4962550;28;96633;-52
2021/06/02 01:07:37;;;;;;;2.40;1.90;;;17.50;70.90;;;;;;4971629;28;96102;-52
2021/06/02 01:10:09;;;;;;;3.83;2.70;;;17.50;70.50;;;;;;4966055;28;95808;-53
2021/06/02 01:12:42;;;;;;;3.13;2.38;;;17.50;70.50;;;;;;4967710;28;95285;-53
2021/06/02 01:15:14;;;;;;;3.85;2.25;;;17.50;70.50;;;;;;4963242;28;96665;-54
2021/06/02 01:17:45;;;;;;;5.18;2.13;;;17.50;70.50;;;;;;4947182;28;102393;-53
2021/06/02 01:20:17;;;;;;;3.50;2.00;;;17.60;70.60;;;;;;4947566;28;95593;-50
2021/06/02 01:22:48;;;;;;;4.50;1.90;;;17.60;71.00;;;;;;4962797;28;95861;-53
2021/06/02 01:25:23;;;;;;;3.33;1.63;;;17.70;71.10;;;;;;4948149;28;96268;-54
2021/06/02 01:27:53;;;;;;;2.45;1.88;;;17.80;71.30;;;;;;4949947;28;96011;-54
2021/06/02 01:30:25;;;;;;;6.55;2.42;;;17.90;71.40;;;;;;4945339;28;95600;-50
2021/06/02 01:33:33;;;;;;;4.25;1.80;;;18.00;71.50;;;;;;4970475;28;95929;-51
2021/06/02 01:36:13;;;;;;;4.78;1.98;;;18.20;71.60;;;;;;4973284;28;95782;-51
2021/06/02 01:39:20;;;;;;;2.70;2.30;;;18.40;71.60;;;;;;4978499;28;96018;-49
2021/06/02 01:42:00;;;;;;;2.47;1.85;;;18.50;71.60;;;;;;4985988;28;95999;-52
2021/06/02 01:45:03;;;;;;;1.77;1.45;;;18.70;71.50;;;;;;4976895;28;95461;-50
2021/06/02 01:48:07;;;;;;;1.52;1.42;;;18.90;71.40;;;;;;4973952;28;95929;-51
2021/06/02 01:50:53;;;;;;;2.03;1.40;;;19.10;71.20;;;;;;4971378;28;95384;-49
2021/06/02 01:54:01;;;;;;;2.05;1.75;;;19.30;70.90;;;;;;4970972;28;95779;-49
2021/06/02 01:56:49;;;;;;;5.32;1.60;;;19.40;70.80;;;;;;4961361;28;96113;-50
2021/06/02 01:59:56;;;;;;;1.60;1.35;;;19.60;70.50;;;;;;4980545;28;96453;-50
2021/06/02 02:02:34;;;;;;;2.00;1.35;;;19.70;70.40;;;;;;4952155;28;95830;-51
2021/06/02 02:05:23;;;;;;;2.45;1.75;;;19.90;70.10;;;;;;5002926;28;95503;-51
2021/06/02 02:08:32;;;;;;;1.95;1.77;;;20.00;69.70;;;;;;4985628;28;95707;-50
2021/06/02 02:11:25;;;;;;;3.95;1.85;;;20.20;69.70;;;;;;4981168;28;96063;-48
2021/06/02 02:14:07;;;;;;;1.50;1.33;;;20.30;68.30;;;;;;4985335;28;96271;-49
2021/06/02 02:17:11;;;;;;;2.17;1.67;;;20.40;68.80;;;;;;4974560;28;96150;-50
2021/06/02 02:20:01;;;;;;;2.05;1.90;;;20.60;68.60;;;;;;4980149;28;95851;-48
2021/06/02 02:22:55;;;;;;;2.63;1.92;;;20.80;68.20;;;;;;4967352;28;96868;-50
2021/06/02 02:25:42;;;;;;;4.05;2.85;;;20.70;63.90;;;;;;4978467;28;95820;-49
2021/06/02 02:28:24;;;;;;;5.28;2.35;;;20.60;63.60;;;;;;4968874;28;96279;-49
2021/06/02 02:31:43;;;;;;;5.15;2.55;;;20.40;59.70;;;;;;4957077;28;95448;-49
2021/06/02 02:34:26;;;;;;;3.95;2.30;;;20.30;62.30;;;;;;4979722;28;97818;-48
2021/06/02 02:37:04;;;;;;;3.38;1.90;;;20.30;62.30;;;;;;4969431;28;96079;-52
2021/06/02 02:39:42;;;;;;;2.92;2.08;;;20.30;62.30;;;;;;4975540;28;95641;-49
2021/06/02 02:42:28;;;;;;;2.95;2.20;;;20.40;59.60;;;;;;4979732;28;95694;-50
2021/06/02 02:45:22;;;;;;;4.53;2.30;;;20.40;61.50;;;;;;4982216;28;95850;-50
2021/06/02 02:48:07;;;;;;;2.92;2.30;;;20.40;60.30;;;;;;4981468;28;102163;-50
2021/06/02 02:50:44;;;;;;;2.90;2.25;;;20.50;60.70;;;;;;4986333;28;95742;-48
2021/06/02 02:53:52;;;;;;;3.05;1.80;;;20.50;60.50;;;;;;4983075;28;95885;-50
2021/06/02 02:56:48;;;;;;;1.85;1.40;;;20.60;59.10;;;;;;4985272;28;96496;-49
2021/06/02 02:59:43;;;;;;;5.05;1.90;;;20.70;59.00;;;;;;4979082;28;95840;-49
2021/06/02 03:02:27;;;;;;;3.70;2.10;;;20.90;58.60;;;;;;4959575;28;98080;-49
2021/06/02 03:05:02;;;;;;;3.53;1.90;;;21.10;58.40;;;;;;4963989;28;98354;-49
2021/06/02 03:07:36;;;;;;;2.63;1.50;;;21.30;57.80;;;;;;4968618;28;98922;-52
2021/06/02 03:10:16;;;;;;;2.13;1.92;;;21.40;56.80;;;;;;4981708;28;96812;-47
2021/06/02 03:13:24;;;;;;;3.00;2.17;;;21.60;57.50;;;;;;4987243;28;96015;-49
2021/06/02 03:16:00;;;;;;;3.47;1.98;;;21.60;57.40;;;;;;4974557;28;95714;-48
2021/06/02 03:18:58;;;;;;;2.90;2.08;;;21.70;56.70;;;;;;4970381;28;95923;-53
2021/06/02 03:21:53;;;;;;;2.55;1.65;;;21.90;57.40;;;;;;4974973;28;95801;-52
2021/06/02 03:24:36;;;;;;;1.73;1.63;;;22.10;57.50;;;;;;4971200;28;95473;-51
2021/06/02 03:27:26;;;;;;;3.88;2.45;;;22.20;57.50;;;;;;4958086;28;96023;-50
2021/06/02 03:30:30;;;;;;;1.60;1.50;;;22.30;56.80;;;;;;4970863;28;96386;-54
2021/06/02 03:33:50;;;;;;;1.67;1.35;;;22.40;57.30;;;;;;4971874;28;101707;-51
2021/06/02 03:37:18;;;;;;;1.67;1.30;;;22.50;56.90;;;;;;4979301;28;95346;-51
2021/06/02 03:40:08;;;;;;;5.60;1.70;;;22.60;56.30;;;;;;4884695;28;95314;-55
2021/06/02 03:42:50;;;;;;;1.20;1.10;;;22.70;56.00;;;;;;4879163;28;95963;-55
2021/06/02 03:45:33;;;;;;;5.38;1.20;;;22.80;54.80;;;;;;4950427;28;96481;-56
2021/06/02 03:48:32;;;;;;;2.00;1.30;;;22.80;55.40;;;;;;4976719;28;96302;-51
2021/06/02 03:51:20;;;;;;;1.17;1.08;;;22.90;55.10;;;;;;4966229;28;95823;-55
2021/06/02 03:54:04;;;;;;;2.40;1.55;;;23.00;54.40;;;;;;4968778;28;96222;-56
2021/06/02 03:57:05;;;;;;;1.63;1.33;;;23.10;54.90;;;;;;4976846;28;96039;-56
2021/06/02 03:59:50;;;;;;;4.13;1.43;;;23.20;55.20;;;;;;4975913;28;95689;-54
2021/06/02 04:02:25;;;;;;;2.38;1.20;;;23.30;55.00;;;;;;4967362;28;95859;-57
2021/06/02 04:05:08;;;;;;;1.70;1.52;;;23.40;54.90;;;;;;4968747;28;95871;-56
2021/06/02 04:07:55;;;;;;;2.15;1.15;;;23.40;54.10;;;;;;4967431;28;95795;-56
2021/06/02 04:10:57;;;;;;;1.30;0.93;;;23.50;54.40;;;;;;4978128;28;95971;-56
2021/06/02 04:13:47;;;;;;;2.75;1.50;;;23.50;54.30;;;;;;4937641;28;95432;-54
2021/06/02 04:16:33;;;;;;;2.20;1.52;;;23.50;53.00;;;;;;4949692;28;101133;-54
2021/06/02 04:19:11;;;;;;;3.25;1.65;;;23.50;53.30;;;;;;4965425;28;95675;-54
2021/06/02 04:21:45;;;;;;;3.35;1.70;;;23.20;53.40;;;;;;4952363;28;95782;-57
2021/06/02 04:24:18;;;;;;;12.00;4.53;;;23.10;53.90;;;;;;4948768;28;95786;-57
2021/06/02 04:26:51;;;;;;;5.38;2.65;;;23.00;53.40;;;;;;4943270;28;95988;-56
2021/06/02 04:29:25;;;;;;;3.60;2.85;;;22.90;53.80;;;;;;4944658;28;95901;-53
2021/06/02 04:32:08;;;;;;;3.70;2.00;;;22.80;53.70;;;;;;4945747;28;95385;-52
2021/06/02 04:34:40;;;;;;;3.03;1.88;;;22.70;53.10;;;;;;4956881;28;95915;-57
2021/06/02 04:37:11;;;;;;;;;;;22.70;52.20;;;;;;4961065;28;98105;-57
2021/06/02 04:39:44;;;;;;;3.25;2.33;;;22.70;54.30;;;;;;4962257;28;96173;-57
2021/06/02 04:42:18;;;;;;;4.78;2.90;;;22.70;54.20;;;;;;4959750;28;96416;-54
2021/06/02 04:44:50;;;;;;;3.45;2.45;;;22.60;52.90;;;;;;4939452;28;96022;-56
2021/06/02 04:47:24;;;;;;;9.38;2.40;;;22.60;51.40;;;;;;4967226;28;95877;-54
2021/06/02 04:50:14;;;;;;;3.22;1.95;;;22.80;53.50;;;;;;4984209;28;95412;-53
2021/06/02 04:53:17;;;;;;;5.10;2.40;;;22.90;53.60;;;;;;4976384;28;95959;-51
2021/06/02 04:56:10;;;;;;;4.25;2.25;;;23.00;52.80;;;;;;4969002;28;95740;-56
2021/06/02 04:59:13;;;;;;;1.85;1.60;;;22.70;51.30;;;;;;4968870;28;97988;-51
2021/06/02 05:01:54;;;;;;;3.97;1.85;;;22.50;52.10;;;;;;4972633;28;96638;-53
2021/06/02 05:04:56;;;;;;;7.03;2.33;;;22.30;52.80;;;;;;4969614;28;95833;-54
2021/06/02 05:07:46;;;;;;;;;;;22.30;53.70;;;;;;4979934;28;95947;-56
2021/06/02 05:10:33;;;;;;;4.10;2.63;;;22.20;53.20;;;;;;4977352;28;95972;-55
2021/06/02 05:13:13;;;;;;;4.40;2.92;;;22.10;53.10;;;;;;4972293;28;96069;-57
2021/06/02 05:16:19;;;;;;;4.88;2.85;;;21.90;54.40;;;;;;4976117;28;95496;-52
2021/06/02 05:19:23;;;;;;;4.90;2.97;;;21.90;53.40;;;;;;4949633;28;95739;-54
2021/06/02 05:22:14;;;;;;;2.95;2.55;;;22.00;54.00;;;;;;4953593;28;96208;-57
2021/06/02 05:24:57;;;;;;;6.05;3.22;;;21.90;54.00;;;;;;4951965;28;97602;-52
2021/06/02 05:28:01;;;;;;;2.72;2.33;;;21.70;54.80;;;;;;4958518;28;95400;-50
2021/06/02 05:31:18;;;;;;;4.90;2.25;;;21.70;54.80;;;;;;4957914;28;95391;-54
2021/06/02 05:34:20;;;;;;;2.33;2.17;;;21.60;52.90;;;;;;4921779;28;96031;-55
2021/06/02 05:36:54;;;;;;;4.07;1.95;;;21.40;53.00;;;;;;4987433;28;96521;-54
2021/06/02 05:39:54;;;;;;;3.63;2.00;;;21.40;55.30;;;;;;4973092;28;95646;-58
2021/06/02 05:43:02;;;;;;;5.57;2.05;;;21.50;54.70;;;;;;4982584;28;95733;-53
2021/06/02 05:45:53;;;;;;;4.85;2.20;;;21.50;54.80;;;;;;4976392;28;97280;-53
2021/06/02 05:48:43;;;;;;;2.38;1.77;;;21.50;55.40;;;;;;4982866;28;95957;-56
2021/06/02 05:51:39;;;;;;;3.28;1.33;;;21.60;54.70;;;;;;4979734;28;95765;-52
2021/06/02 05:54:28;;;;;;;1.83;1.38;;;21.60;55.00;;;;;;4973656;28;96196;-58
2021/06/02 05:57:39;;;;;;;2.05;1.38;;;21.70;55.50;;;;;;4978607;28;95927;-57
2021/06/02 06:00:27;;;;;;;;;;;21.70;54.90;;;;;;4938730;28;96059;-56
2021/06/02 06:03:20;;;;;;;2.60;1.58;;;21.60;55.00;;;;;;4971078;28;95837;-57
2021/06/02 06:06:22;;;;;;;1.85;1.38;;;21.70;55.00;;;;;;4978556;28;95893;-57
2021/06/02 06:09:38;;;;;;;1.80;1.10;;;21.80;54.30;;;;;;4987027;28;96057;-60
2021/06/02 06:12:37;;;;;;;2.75;1.40;;;21.90;54.30;;;;;;4972607;28;96428;-58
2021/06/02 06:15:36;;;;;;;1.25;1.10;;;21.90;54.00;;;;;;4987942;28;95473;-54
2021/06/02 06:18:41;;;;;;;3.55;1.25;;;22.00;54.50;;;;;;4984576;28;95423;-54
2021/06/02 06:21:37;;;;;;;4.72;1.27;;;21.90;53.40;;;;;;4984822;28;95875;-54
2021/06/02 06:24:24;;;;;;;3.28;1.73;;;21.70;53.50;;;;;;4982663;28;96308;-52
2021/06/02 06:27:14;;;;;;;1.60;1.20;;;21.50;55.50;;;;;;4978196;28;102510;-57
2021/06/02 06:30:02;;;;;;;3.72;1.67;;;21.50;56.40;;;;;;4969296;28;97679;-53
2021/06/02 06:32:36;;;;;;;8.52;1.80;;;21.30;55.80;;;;;;4969236;28;95912;-52
2021/06/02 06:35:10;;;;;;;4.15;3.17;;;21.30;56.30;;;;;;4979350;28;95373;-55
2021/06/02 06:37:48;;;;;;;1.90;1.70;;;21.20;56.30;;;;;;4982203;28;96257;-52
2021/06/02 06:40:25;;;;;;;1.42;1.25;;;21.10;56.30;;;;;;4976448;28;95917;-55
2021/06/02 06:43:00;;;;;;;3.33;2.35;;;21.00;56.10;;;;;;4968781;28;96373;-55
2021/06/02 06:45:33;;;;;;;4.35;3.25;;;21.00;53.30;;;;;;4965124;28;97866;-55
2021/06/02 06:48:21;;;;;;;3.55;2.17;;;20.90;56.30;;;;;;4978185;28;95614;-53
2021/06/02 06:50:57;;;;;;;1.90;1.60;;;20.80;56.20;;;;;;4978907;28;95780;-56
2021/06/02 06:53:30;;;;;;;2.88;1.80;;;20.70;56.20;;;;;;4965629;28;95890;-54
2021/06/02 06:56:02;;;;;;;2.33;2.00;;;20.60;56.50;;;;;;4982633;28;96053;-55
2021/06/02 06:58:32;;;;;;;3.80;2.25;;;20.50;56.80;;;;;;4984842;28;96165;-52
2021/06/02 07:01:03;;;;;;;2.67;2.25;;;20.50;57.00;;;;;;4983776;28;95962;-53
2021/06/02 07:03:49;;;;;;;6.63;3.60;;;20.40;56.90;;;;;;4984693;28;96156;-56
2021/06/02 07:06:20;;;;;;;7.43;5.00;;;20.30;57.00;;;;;;4978990;28;95717;-53
2021/06/02 07:08:51;;;;;;;8.98;5.40;;;20.30;57.10;;;;;;4979603;28;95709;-51
2021/06/02 07:11:23;;;;;;;7.32;5.07;;;20.20;57.60;;;;;;4982853;28;95630;-55
2021/06/02 07:13:54;;;;;;;;;;;20.10;58.30;;;;;;4980617;28;96413;-52
2021/06/02 07:16:25;;;;;;;;;;;20.10;59.50;;;;;;4977498;28;95960;-52
2021/06/02 07:18:59;;;;;;;5.47;4.40;;;20.20;59.20;;;;;;4984560;28;96423;-50
2021/06/02 07:21:32;;;;;;;10.35;5.13;;;20.30;59.10;;;;;;4980915;28;95759;-49
2021/06/02 07:24:04;;;;;;;10.45;6.35;;;20.20;59.30;;;;;;4963260;28;98445;-50
2021/06/02 07:26:36;;;;;;;8.55;5.32;;;20.20;59.20;;;;;;4987276;28;95862;-50
2021/06/02 07:29:27;;;;;;;10.82;5.68;;;20.20;59.10;;;;;;4985717;28;100881;-50
2021/06/02 07:31:58;;;;;;;8.07;5.60;;;20.20;59.30;;;;;;4976602;28;95852;-50
2021/06/02 07:34:30;;;;;;;8.35;5.82;;;20.10;59.10;;;;;;4982300;28;95901;-52
2021/06/02 07:37:00;;;;;;;11.63;6.22;;;20.10;59.40;;;;;;4984229;28;95549;-51
2021/06/02 07:39:32;;;;;;;7.55;4.47;;;20.00;59.30;;;;;;4965797;28;95884;-50
2021/06/02 07:42:04;;;;;;;11.93;4.90;;;20.00;60.00;;;;;;4968546;28;95904;-50
2021/06/02 07:44:35;;;;;;;6.65;4.15;;;19.90;60.60;;;;;;4983338;28;96497;-51
2021/06/02 07:47:07;;;;;;;9.25;4.85;;;19.90;60.70;;;;;;4962852;28;95735;-51
2021/06/02 07:49:56;;;;;;;7.85;4.03;;;19.90;60.90;;;;;;4967703;28;95779;-51
2021/06/02 07:52:27;;;;;;;6.73;3.93;;;19.90;61.00;;;;;;4970720;28;95701;-52
2021/06/02 07:54:58;;;;;;;11.50;4.55;;;19.90;61.40;;;;;;4973614;28;95903;-51
2021/06/02 07:57:32;;;;;;;6.65;4.43;;;19.80;61.50;;;;;;4976307;28;95762;-50
2021/06/02 08:00:07;;;;;;;4.22;3.33;;;19.80;61.80;;;;;;4972725;28;96091;-56
2021/06/02 08:02:41;;;;;;;5.18;3.63;;;19.80;62.00;;;;;;4980931;28;96189;-55
2021/06/02 08:05:15;;;;;;;4.28;3.30;;;19.80;62.20;;;;;;4951943;28;96757;-53
2021/06/02 08:07:47;;;;;;;4.72;3.75;;;19.70;62.60;;;;;;4967397;28;96071;-51
2021/06/02 08:10:21;;;;;;;5.30;3.80;;;19.70;62.60;;;;;;4977918;28;96091;-55
2021/06/02 08:12:53;;;;;;;6.70;4.35;;;19.60;62.50;;;;;;4997475;28;95790;-52
2021/06/02 08:15:26;;;;;;;4.70;3.03;;;19.60;62.90;;;;;;4974270;28;96451;-56
2021/06/02 08:17:58;;;;;;;3.40;2.60;;;19.60;63.10;;;;;;4978376;28;102390;-52
2021/06/02 08:20:28;;;;;;;5.53;3.63;;;19.50;63.40;;;;;;4962008;28;95944;-52
2021/06/02 08:22:59;;;;;;;5.53;3.67;;;19.50;63.80;;;;;;4981734;28;96059;-52
2021/06/02 08:25:32;;;;;;;6.35;4.13;;;19.50;63.50;;;;;;4982471;28;96731;-53
2021/06/02 08:28:03;;;;;;;4.07;3.30;;;19.40;64.30;;;;;;4985076;28;95684;-52
2021/06/02 08:30:34;;;;;;;5.65;3.88;;;19.40;64.00;;;;;;4961820;28;98785;-53
2021/06/02 08:33:07;;;;;;;5.90;3.90;;;19.40;64.30;;;;;;4983361;28;95745;-53
2021/06/02 08:35:39;;;;;;;6.63;4.30;;;19.40;64.20;;;;;;4965413;28;96417;-51
2021/06/02 08:38:10;;;;;;;4.35;3.58;;;19.30;64.50;;;;;;4979595;28;96688;-51
2021/06/02 08:40:42;;;;;;;5.55;3.85;;;19.30;64.60;;;;;;4970842;28;95683;-53
2021/06/02 08:43:19;;;;;;;6.03;3.58;;;19.30;65.00;;;;;;4990457;28;96005;-54
2021/06/02 08:45:51;;;;;;;6.65;4.40;;;19.30;65.10;;;;;;4974183;28;96082;-52
2021/06/02 08:48:21;;;;;;;8.33;4.67;;;19.30;65.00;;;;;;4971031;28;97192;-52
2021/06/02 08:50:52;;;;;;;;;;;19.30;65.60;;;;;;4961054;28;96259;-52
2021/06/02 08:53:23;;;;;;;7.15;4.40;;;19.20;65.60;;;;;;4970502;28;96115;-57
2021/06/02 08:55:53;;;;;;;6.45;4.63;;;19.20;65.50;;;;;;4949729;28;96191;-54
2021/06/02 08:58:23;;;;;;;8.40;5.15;;;19.20;65.70;;;;;;4972657;28;95627;-53
2021/06/02 09:00:54;;;;;;;12.15;6.82;;;19.20;66.00;;;;;;4975349;28;96159;-54
2021/06/02 09:03:29;;;;;;;13.60;7.28;;;19.10;65.90;;;;;;4982114;28;95875;-57
2021/06/02 09:06:06;;;;;;;13.10;7.40;;;19.10;66.00;;;;;;4977835;28;95936;-53
2021/06/02 09:08:41;;;;;;;11.95;7.43;;;19.10;66.30;;;;;;4976793;28;96007;-53
2021/06/02 09:11:19;;;;;;;12.30;7.45;;;19.10;66.40;;;;;;4980826;28;95610;-54
2021/06/02 09:13:50;;;;;;;11.50;7.20;;;19.00;66.40;;;;;;4978246;28;95637;-52
2021/06/02 09:16:30;;;;;;;;;;;18.90;66.70;;;;;;4973140;28;96636;-52
2021/06/02 09:19:08;;;;;;;15.35;7.30;;;18.90;67.20;;;;;;4967567;28;95717;-53
2021/06/02 09:21:43;;;;;;;14.27;7.28;;;18.90;67.00;;;;;;4977762;28;96070;-52
2021/06/02 09:24:14;;;;;;;11.65;6.90;;;18.80;67.00;;;;;;4976858;28;95638;-51
2021/06/02 09:26:53;;;;;;;11.43;7.35;;;18.80;67.00;;;;;;4963456;28;96588;-52
2021/06/02 09:29:25;;;;;;;12.07;6.93;;;18.80;67.40;;;;;;4982470;28;95480;-53
2021/06/02 09:31:57;;;;;;;14.02;7.75;;;18.70;67.40;;;;;;4968603;28;95743;-52
2021/06/02 09:34:28;;;;;;;12.98;7.60;;;18.70;67.50;;;;;;4968644;28;97775;-56
2021/06/02 09:37:04;;;;;;;17.48;7.72;;;18.60;67.70;;;;;;4969055;28;96043;-53
2021/06/02 09:39:45;;;;;;;12.10;7.65;;;18.60;67.60;;;;;;4954273;28;97377;-52
2021/06/02 09:42:20;;;;;;;13.27;7.95;;;18.60;67.60;;;;;;4972873;28;95811;-53
2021/06/02 09:45:12;;;;;;;13.40;8.73;;;18.60;67.80;;;;;;4973766;28;96059;-52
2021/06/02 09:47:47;;;;;;;12.13;7.95;;;18.60;68.00;;;;;;4971202;28;102210;-52
2021/06/02 09:50:21;;;;;;;12.73;7.78;;;18.60;67.90;;;;;;4972556;28;95381;-52
2021/06/02 09:52:54;;;;;;;13.48;7.85;;;18.50;68.00;;;;;;4957932;28;96219;-52
2021/06/02 09:55:33;;;;;;;16.58;8.18;;;18.50;68.30;;;;;;4975907;28;95377;-55
2021/06/02 09:58:09;;;;;;;13.20;7.57;;;18.50;68.40;;;;;;4968137;28;95931;-52
2021/06/02 10:00:46;;;;;;;19.40;8.52;;;18.40;68.40;;;;;;4950867;28;96701;-51
2021/06/02 10:03:20;;;;;;;16.77;8.43;;;18.40;68.50;;;;;;4953959;28;95918;-51
2021/06/02 10:05:53;;;;;;;12.75;7.72;;;18.40;68.70;;;;;;4984687;28;95659;-52
2021/06/02 10:08:36;;;;;;;12.25;8.60;;;18.30;68.80;;;;;;4984838;28;95848;-53
2021/06/02 10:11:18;;;;;;;14.15;7.78;;;18.30;68.70;;;;;;4988112;28;95894;-52
2021/06/02 10:13:51;;;;;;;11.02;7.53;;;18.30;68.80;;;;;;4973132;28;97311;-53
2021/06/02 10:16:49;;;;;;;15.85;9.30;;;18.30;68.90;;;;;;4969698;28;98713;-52
2021/06/02 10:19:44;;;;;;;12.52;7.75;;;18.20;68.80;;;;;;4968882;28;96063;-53
2021/06/02 10:22:26;;;;;;;12.98;8.57;;;18.20;69.30;;;;;;4975703;28;95881;-51
2021/06/02 10:25:01;;;;;;;;;;;18.20;69.00;;;;;;4976199;28;95916;-53
2021/06/02 10:27:33;;;;;;;11.50;8.60;;;18.20;69.00;;;;;;4974214;28;95676;-52
2021/06/02 10:30:08;;;;;;;9.25;6.93;;;18.10;69.00;;;;;;4973445;28;95867;-53
2021/06/02 10:32:38;;;;;;;10.70;8.13;;;18.10;69.00;;;;;;4971143;28;96990;-52
2021/06/02 10:35:10;;;;;;;14.40;9.43;;;18.10;69.00;;;;;;4975195;28;95875;-52
2021/06/02 10:37:45;;;;;;;16.88;9.10;;;18.00;69.10;;;;;;4982479;28;95921;-53
2021/06/02 10:40:23;;;;;;;13.82;8.68;;;18.00;69.40;;;;;;4973654;28;95957;-53
2021/06/02 10:43:14;;;;;;;13.18;9.38;;;18.00;69.40;;;;;;4972409;28;96222;-52
2021/06/02 10:45:45;;;;;;;10.90;8.80;;;17.90;69.40;;;;;;4953643;28;96706;-52
2021/06/02 10:48:17;;;;;;;12.05;8.88;;;17.90;69.50;;;;;;4977922;28;95875;-54
2021/06/02 10:50:49;;;;;;;13.88;8.85;;;17.90;69.60;;;;;;4966905;28;96563;-53
2021/06/02 10:53:25;;;;;;;13.40;8.95;;;17.90;69.70;;;;;;4964726;28;95856;-52
2021/06/02 10:55:59;;;;;;;15.95;10.02;;;17.80;69.70;;;;;;4973191;28;95998;-53
2021/06/02 10:58:56;;;;;;;15.40;11.10;;;17.80;69.90;;;;;;4970294;28;95764;-54
2021/06/02 11:01:29;;;;;;;14.07;9.18;;;17.80;69.90;;;;;;4970192;28;95966;-53
2021/06/02 11:04:12;;;;;;;15.63;8.80;;;17.80;69.80;;;;;;4983656;28;95274;-52
2021/06/02 11:06:45;;;;;;;14.73;9.07;;;17.80;69.70;;;;;;4970220;28;95871;-51
2021/06/02 11:09:18;;;;;;;14.90;9.95;;;17.80;69.70;;;;;;4967585;28;96114;-51
2021/06/02 11:12:02;;;;;;;13.70;9.48;;;17.80;69.60;;;;;;4970544;28;96885;-55
2021/06/02 11:14:33;;;;;;;14.77;9.90;;;17.80;69.70;;;;;;4972290;28;95439;-55
2021/06/02 11:17:14;;;;;;;12.02;8.77;;;17.70;69.60;;;;;;4970804;28;95807;-52
2021/06/02 11:19:56;;;;;;;15.10;10.10;;;17.70;69.60;;;;;;4973405;28;95702;-50
2021/06/02 11:22:28;;;;;;;14.85;10.10;;;17.70;70.00;;;;;;4972884;28;96104;-55
2021/06/02 11:25:00;;;;;;;14.30;10.23;;;17.70;70.20;;;;;;4975888;28;95431;-54
2021/06/02 11:27:33;;;;;;;15.15;10.45;;;17.80;70.30;;;;;;4949158;28;96201;-53
2021/06/02 11:30:06;;;;;;;14.13;10.73;;;17.70;70.40;;;;;;4958302;28;95796;-55
2021/06/02 11:32:49;;;;;;;19.02;11.75;;;17.70;70.50;;;;;;4960650;28;96099;-50
2021/06/02 11:35:59;;;;;;;17.15;12.27;;;17.70;70.60;;;;;;4975367;28;96083;-52
2021/06/02 11:38:31;;;;;;;16.67;11.85;;;17.80;71.50;;;;;;4970508;28;95962;-50
2021/06/02 11:41:02;;;;;;;14.32;10.93;;;17.70;71.30;;;;;;4975559;28;95984;-50
2021/06/02 11:43:34;;;;;;;14.82;10.73;;;17.80;71.00;;;;;;4972046;28;95888;-52
2021/06/02 11:46:07;;;;;;;16.30;11.18;;;17.90;70.90;;;;;;4965268;28;98583;-52
2021/06/02 11:48:38;;;;;;;14.90;10.38;;;18.00;70.90;;;;;;4979965;28;95728;-51
2021/06/02 11:51:11;;;;;;;14.00;10.15;;;18.10;70.80;;;;;;4975499;28;95968;-51
2021/06/02 11:53:51;;;;;;;15.27;10.15;;;18.20;70.80;;;;;;4970120;28;96754;-48
2021/06/02 11:56:21;;;;;;;14.80;10.95;;;18.20;70.80;;;;;;4969602;28;96013;-52
2021/06/02 11:58:53;;;;;;;12.50;9.23;;;18.30;70.80;;;;;;4971541;28;95726;-54
2021/06/02 12:01:24;;;;;;;13.20;9.35;;;18.30;70.80;;;;;;4962025;28;95953;-50
2021/06/02 12:03:58;;;;;;;10.80;8.52;;;18.40;71.00;;;;;;4957893;28;96826;-49
2021/06/02 12:06:31;;;;;;;12.88;9.07;;;18.40;70.80;;;;;;4972860;28;96006;-56
2021/06/02 12:09:10;;;;;;;14.65;10.15;;;18.40;70.80;;;;;;4976341;28;96352;-52
2021/06/02 12:11:43;;;;;;;15.20;10.55;;;18.40;69.40;;;;;;4979714;28;96057;-51
2021/06/02 12:14:30;;;;;;;15.88;11.30;;;18.30;69.10;;;;;;4974433;28;96016;-51
2021/06/02 12:17:02;;;;;;;;;;;18.20;69.50;;;;;;4953933;28;97664;-51
2021/06/02 12:19:36;;;;;;;14.68;9.82;;;18.00;69.70;;;;;;4969929;28;95287;-53
2021/06/02 12:22:20;;;;;;;16.75;10.40;;;18.00;69.90;;;;;;4982005;28;95600;-54
2021/06/02 12:25:08;;;;;;;16.17;10.40;;;17.90;69.90;;;;;;4974656;28;95874;-55
2021/06/02 12:27:45;;;;;;;17.27;10.32;;;17.90;70.00;;;;;;4978286;28;96032;-52
2021/06/02 12:30:30;;;;;;;12.93;10.07;;;17.80;70.00;;;;;;4958352;28;95680;-53
2021/06/02 12:33:10;;;;;;;15.27;11.05;;;17.80;70.00;;;;;;4976477;28;95782;-54
2021/06/02 12:35:45;;;;;;;14.23;10.55;;;17.70;70.00;;;;;;4969451;28;95842;-53
2021/06/02 12:38:22;;;;;;;19.35;11.27;;;17.70;70.20;;;;;;4975308;28;95635;-56
2021/06/02 12:40:56;;;;;;;13.65;10.13;;;17.60;70.30;;;;;;4969816;28;95880;-54
2021/06/02 12:43:42;;;;;;;13.75;9.73;;;17.60;70.40;;;;;;4965559;28;95893;-53
2021/06/02 12:46:19;;;;;;;15.32;10.07;;;17.60;70.40;;;;;;4965642;28;96959;-54
2021/06/02 12:48:54;;;;;;;13.98;9.93;;;17.50;70.60;;;;;;4971616;28;96270;-54
2021/06/02 12:51:27;;;;;;;13.65;9.82;;;17.50;70.60;;;;;;4968384;28;95437;-54
2021/06/02 12:53:57;;;;;;;14.15;10.43;;;17.40;70.60;;;;;;4974481;28;95777;-56
2021/06/02 12:56:27;;;;;;;15.65;10.50;;;17.40;70.70;;;;;;4970065;28;96025;-55
2021/06/02 12:58:59;;;;;;;12.95;9.43;;;17.30;70.70;;;;;;4962306;28;96020;-52
2021/06/02 13:01:32;;;;;;;15.00;10.57;;;17.30;70.80;;;;;;4959930;28;95811;-53
2021/06/02 13:04:05;;;;;;;17.80;10.88;;;17.30;70.90;;;;;;4965764;28;95280;-54
2021/06/02 13:06:37;;;;;;;13.57;10.52;;;17.30;70.90;;;;;;4971232;28;95851;-53
2021/06/02 13:09:10;;;;;;;13.85;9.82;;;17.30;70.90;;;;;;4969767;28;95490;-55
2021/06/02 13:11:42;;;;;;;14.80;9.55;;;17.30;70.80;;;;;;4971312;28;97460;-54
2021/06/02 13:14:14;;;;;;;12.95;9.30;;;17.30;70.90;;;;;;4970387;28;95831;-52
2021/06/02 13:17:05;;;;;;;15.23;10.30;;;17.20;70.70;;;;;;4964732;28;96730;-51
2021/06/02 13:19:42;;;;;;;15.45;10.85;;;17.20;70.80;;;;;;4975174;28;95813;-51
2021/06/02 13:22:23;;;;;;;14.80;10.20;;;17.20;70.80;;;;;;4970035;28;96298;-51
2021/06/02 13:25:03;;;;;;;15.93;10.52;;;17.20;70.80;;;;;;4972355;28;95352;-52
2021/06/02 13:27:36;;;;;;;;;;;17.10;70.80;;;;;;4967272;28;95874;-52
2021/06/02 13:30:11;;;;;;;12.90;9.57;;;17.10;70.80;;;;;;4987013;28;96286;-52
2021/06/02 13:32:56;;;;;;;12.40;8.75;;;17.10;70.80;;;;;;4973833;28;95728;-51
2021/06/02 13:35:29;;;;;;;13.85;9.45;;;17.10;70.70;;;;;;4975075;28;96053;-55
2021/06/02 13:37:59;;;;;;;13.70;9.38;;;17.10;70.80;;;;;;4972314;28;96028;-54
2021/06/02 13:40:36;;;;;;;13.63;9.57;;;17.10;70.90;;;;;;4977361;28;95638;-52
2021/06/02 13:43:14;;;;;;;13.63;9.45;;;17.00;70.90;;;;;;4974885;28;95956;-54
2021/06/02 13:45:55;;;;;;;16.25;10.98;;;17.10;67.50;;;;;;4970189;28;96061;-51
2021/06/02 13:48:33;;;;;;;12.98;9.02;;;17.00;70.90;;;;;;4974255;28;96995;-52
2021/06/02 13:51:24;;;;;;;12.57;9.63;;;17.00;70.80;;;;;;4972084;28;95664;-54
2021/06/02 13:54:04;;;;;;;16.00;9.63;;;17.00;70.80;;;;;;4977498;28;96289;-53